DAOO

Es Senia Airport

Oran, Algeria
METAR DAOO 151900Z 24018KT 9999 FEW020 SCT026 15/13 Q1013
Observed Flight Rules
Dec-15 @ 19:00 UTC (40 minutes ago) Visual Flight Rules
Wind Visibility Clouds
240° at 18 knots 10,000+ meters
  • Few at 2,000' AGL
  • Scattered at 2,600' AGL
Temperatures Readings
Current 15°C / 59°F
Dewpoint 13°C / 55°F
Humidity 88%
Altimeter 29.91" Hg
Pressure 1013 hPa
Elevation 90
METAR DAOO 151900Z 24018KT 9999 FEW020 SCT026 15/13 Q1013
Observed Flight Rules
Dec-15 @ 19:00 UTC
(40 minutes ago)
VFR
Wind Visibility
240° at 18 knots 10,000+ meters
Clouds
  • Few at 2,000' AGL
  • Scattered at 2,600' AGL
Temperature Dewpoint
15°C / 59°F 13°C / 55°F
Humidity Altimeter Pressure
88% 29.91" Hg 1013 hPa